sensor_id;sensor_type;location;lat;lon;timestamp;pressure;altitude;pressure_sealevel;temperature;humidity
39487;BME280;25173;50.430;18.926;2023-01-30T00:02:16;98250.06;;;2.67;56.34
39487;BME280;25173;50.430;18.926;2023-01-30T00:05:17;98249.69;;;2.63;56.26
39487;BME280;25173;50.430;18.926;2023-01-30T00:08:18;98242.66;;;2.62;56.03
39487;BME280;25173;50.430;18.926;2023-01-30T00:11:19;98224.91;;;2.61;56.27
39487;BME280;25173;50.430;18.926;2023-01-30T00:14:20;98216.84;;;2.61;56.06
39487;BME280;25173;50.430;18.926;2023-01-30T00:17:21;98216.47;;;2.58;56.20
39487;BME280;25173;50.430;18.926;2023-01-30T00:20:21;98220.41;;;2.55;56.03
39487;BME280;25173;50.430;18.926;2023-01-30T00:23:22;98203.25;;;2.56;56.05
39487;BME280;25173;50.430;18.926;2023-01-30T00:26:23;98204.34;;;2.49;56.03
39487;BME280;25173;50.430;18.926;2023-01-30T00:29:23;98201.50;;;2.44;56.02
39487;BME280;25173;50.430;18.926;2023-01-30T00:32:24;98194.84;;;2.46;56.24
39487;BME280;25173;50.430;18.926;2023-01-30T00:35:26;98199.94;;;2.54;55.92
39487;BME280;25173;50.430;18.926;2023-01-30T00:38:30;98199.50;;;2.57;55.75
39487;BME280;25173;50.430;18.926;2023-01-30T00:41:30;98180.63;;;2.64;55.91
39487;BME280;25173;50.430;18.926;2023-01-30T00:44:51;98188.41;;;2.72;55.55
39487;BME280;25173;50.430;18.926;2023-01-30T00:48:10;98176.28;;;2.63;55.39
39487;BME280;25173;50.430;18.926;2023-01-30T00:51:11;98175.84;;;2.66;55.71
39487;BME280;25173;50.430;18.926;2023-01-30T00:54:11;98178.16;;;2.62;55.52
39487;BME280;25173;50.430;18.926;2023-01-30T00:57:12;98168.28;;;2.56;55.27
39487;BME280;25173;50.430;18.926;2023-01-30T01:00:13;98165.59;;;2.56;55.63
39487;BME280;25173;50.430;18.926;2023-01-30T01:03:16;98156.19;;;2.47;55.37
39487;BME280;25173;50.430;18.926;2023-01-30T01:06:17;98146.88;;;2.50;55.57
39487;BME280;25173;50.430;18.926;2023-01-30T01:09:19;98152.84;;;2.52;55.46
39487;BME280;25173;50.430;18.926;2023-01-30T01:12:19;98147.63;;;2.57;55.41
39487;BME280;25173;50.430;18.926;2023-01-30T01:15:21;98140.06;;;2.47;55.12
39487;BME280;25173;50.430;18.926;2023-01-30T01:18:22;98138.63;;;2.45;55.03
39487;BME280;25173;50.430;18.926;2023-01-30T01:21:23;98140.00;;;2.36;54.72
39487;BME280;25173;50.430;18.926;2023-01-30T01:24:24;98128.38;;;2.17;54.85
39487;BME280;25173;50.430;18.926;2023-01-30T01:27:24;98123.56;;;2.01;55.09
39487;BME280;25173;50.430;18.926;2023-01-30T01:30:25;98123.31;;;1.84;55.34
39487;BME280;25173;50.430;18.926;2023-01-30T01:33:27;98113.28;;;1.73;55.63
39487;BME280;25173;50.430;18.926;2023-01-30T01:36:27;98102.22;;;1.63;55.81
39487;BME280;25173;50.430;18.926;2023-01-30T01:39:28;98091.50;;;1.56;56.00
39487;BME280;25173;50.430;18.926;2023-01-30T01:42:49;98089.44;;;1.58;55.77
39487;BME280;25173;50.430;18.926;2023-01-30T01:46:21;98084.53;;;1.55;55.83
39487;BME280;25173;50.430;18.926;2023-01-30T01:49:34;98070.00;;;1.38;56.09
39487;BME280;25173;50.430;18.926;2023-01-30T01:52:36;98059.38;;;1.25;56.36
39487;BME280;25173;50.430;18.926;2023-01-30T01:55:37;98047.84;;;1.17;56.51
39487;BME280;25173;50.430;18.926;2023-01-30T01:58:45;98042.13;;;1.07;56.75
39487;BME280;25173;50.430;18.926;2023-01-30T02:01:48;98037.84;;;1.00;56.94
39487;BME280;25173;50.430;18.926;2023-01-30T02:04:53;98023.28;;;0.89;57.22
39487;BME280;25173;50.430;18.926;2023-01-30T02:08:09;98010.94;;;0.88;57.41
39487;BME280;25173;50.430;18.926;2023-01-30T02:11:26;98006.16;;;0.90;57.50
39487;BME280;25173;50.430;18.926;2023-01-30T02:14:31;98002.66;;;0.90;57.45
39487;BME280;25173;50.430;18.926;2023-01-30T02:17:32;98004.75;;;0.88;57.56
39487;BME280;25173;50.430;18.926;2023-01-30T02:20:45;98000.78;;;0.90;57.69
39487;BME280;25173;50.430;18.926;2023-01-30T02:41:00;97948.22;;;1.14;58.13
39487;BME280;25173;50.430;18.926;2023-01-30T02:44:26;97952.34;;;1.16;58.25
39487;BME280;25173;50.430;18.926;2023-01-30T02:47:43;97955.19;;;1.22;58.10
39487;BME280;25173;50.430;18.926;2023-01-30T02:50:53;97972.09;;;1.22;58.19
39487;BME280;25173;50.430;18.926;2023-01-30T02:53:55;97964.25;;;1.21;58.30
39487;BME280;25173;50.430;18.926;2023-01-30T02:56:58;97958.91;;;1.21;58.17
39487;BME280;25173;50.430;18.926;2023-01-30T03:00:02;97947.41;;;1.13;58.23
39487;BME280;25173;50.430;18.926;2023-01-30T03:03:15;97943.13;;;1.06;59.15
39487;BME280;25173;50.430;18.926;2023-01-30T03:07:34;97929.44;;;0.89;58.70
39487;BME280;25173;50.430;18.926;2023-01-30T03:16:34;97930.31;;;0.58;59.11
39487;BME280;25173;50.430;18.926;2023-01-30T03:19:36;97924.75;;;0.53;59.22
39487;BME280;25173;50.430;18.926;2023-01-30T03:22:37;97932.41;;;0.50;59.34
39487;BME280;25173;50.430;18.926;2023-01-30T03:25:39;97923.78;;;0.48;59.34
39487;BME280;25173;50.430;18.926;2023-01-30T03:28:41;97927.06;;;0.50;59.61
39487;BME280;25173;50.430;18.926;2023-01-30T03:31:43;97914.00;;;0.60;59.54
39487;BME280;25173;50.430;18.926;2023-01-30T03:34:43;97902.44;;;0.66;59.31
39487;BME280;25173;50.430;18.926;2023-01-30T03:37:45;97887.94;;;0.73;59.37
39487;BME280;25173;50.430;18.926;2023-01-30T03:40:47;97882.06;;;0.83;59.29
39487;BME280;25173;50.430;18.926;2023-01-30T03:43:47;97879.59;;;0.88;59.18
39487;BME280;25173;50.430;18.926;2023-01-30T03:46:49;97869.16;;;0.98;58.97
39487;BME280;25173;50.430;18.926;2023-01-30T03:49:50;97860.84;;;1.06;58.99
39487;BME280;25173;50.430;18.926;2023-01-30T03:52:51;97858.69;;;1.15;58.81
39487;BME280;25173;50.430;18.926;2023-01-30T03:55:54;97849.16;;;1.19;58.71
39487;BME280;25173;50.430;18.926;2023-01-30T03:58:59;97844.78;;;1.25;58.46
39487;BME280;25173;50.430;18.926;2023-01-30T04:02:09;97839.44;;;1.25;58.65
39487;BME280;25173;50.430;18.926;2023-01-30T04:05:11;97832.41;;;1.24;58.63
39487;BME280;25173;50.430;18.926;2023-01-30T04:08:15;97824.06;;;1.32;58.68
39487;BME280;25173;50.430;18.926;2023-01-30T04:11:16;97820.50;;;1.38;58.42
39487;BME280;25173;50.430;18.926;2023-01-30T04:14:16;97814.91;;;1.39;58.44
39487;BME280;25173;50.430;18.926;2023-01-30T04:17:37;97811.03;;;1.35;58.56
39487;BME280;25173;50.430;18.926;2023-01-30T04:21:00;97801.50;;;1.39;58.50
39487;BME280;25173;50.430;18.926;2023-01-30T04:24:09;97807.22;;;1.43;58.39
39487;BME280;25173;50.430;18.926;2023-01-30T04:27:10;97789.03;;;1.45;58.46
39487;BME280;25173;50.430;18.926;2023-01-30T04:30:17;97799.69;;;1.51;58.67
39487;BME280;25173;50.430;18.926;2023-01-30T04:33:20;97784.19;;;1.53;58.19
39487;BME280;25173;50.430;18.926;2023-01-30T04:36:21;97790.06;;;1.62;58.35
39487;BME280;25173;50.430;18.926;2023-01-30T04:39:23;97785.53;;;1.63;58.02
39487;BME280;25173;50.430;18.926;2023-01-30T04:42:24;97778.25;;;1.63;57.95
39487;BME280;25173;50.430;18.926;2023-01-30T04:45:45;97774.28;;;1.54;58.02
39487;BME280;25173;50.430;18.926;2023-01-30T04:48:46;97767.13;;;1.48;57.97
39487;BME280;25173;50.430;18.926;2023-01-30T04:51:47;97770.25;;;1.45;58.13
39487;BME280;25173;50.430;18.926;2023-01-30T04:54:48;97756.13;;;1.38;58.29
39487;BME280;25173;50.430;18.926;2023-01-30T04:57:49;97749.50;;;1.40;58.24
39487;BME280;25173;50.430;18.926;2023-01-30T05:00:50;97746.19;;;1.38;58.10
39487;BME280;25173;50.430;18.926;2023-01-30T05:03:51;97751.78;;;1.37;58.18
39487;BME280;25173;50.430;18.926;2023-01-30T05:06:52;97780.69;;;1.35;57.97
39487;BME280;25173;50.430;18.926;2023-01-30T05:09:53;97748.28;;;1.36;58.21
39487;BME280;25173;50.430;18.926;2023-01-30T05:12:53;97742.41;;;1.46;58.25
39487;BME280;25173;50.430;18.926;2023-01-30T05:15:54;97733.66;;;1.50;57.88
39487;BME280;25173;50.430;18.926;2023-01-30T05:18:55;97745.06;;;1.46;57.94
39487;BME280;25173;50.430;18.926;2023-01-30T05:21:56;97744.56;;;1.37;58.07
39487;BME280;25173;50.430;18.926;2023-01-30T05:24:59;97722.16;;;1.32;58.11
39487;BME280;25173;50.430;18.926;2023-01-30T05:28:00;97746.28;;;1.32;58.13
39487;BME280;25173;50.430;18.926;2023-01-30T05:31:02;97748.59;;;1.28;58.26
39487;BME280;25173;50.430;18.926;2023-01-30T05:34:02;97733.69;;;1.32;58.24
39487;BME280;25173;50.430;18.926;2023-01-30T05:37:03;97717.03;;;1.42;58.32
39487;BME280;25173;50.430;18.926;2023-01-30T05:40:05;97703.19;;;1.45;58.20
39487;BME280;25173;50.430;18.926;2023-01-30T05:43:05;97697.50;;;1.53;58.01
39487;BME280;25173;50.430;18.926;2023-01-30T05:46:06;97693.19;;;1.52;57.71
39487;BME280;25173;50.430;18.926;2023-01-30T05:49:09;97685.50;;;1.55;57.98
39487;BME280;25173;50.430;18.926;2023-01-30T05:52:09;97694.72;;;1.60;57.38
39487;BME280;25173;50.430;18.926;2023-01-30T05:55:10;97681.91;;;1.62;57.72
39487;BME280;25173;50.430;18.926;2023-01-30T05:58:11;97670.03;;;1.69;57.50
39487;BME280;25173;50.430;18.926;2023-01-30T06:01:11;97683.78;;;1.73;57.75
39487;BME280;25173;50.430;18.926;2023-01-30T06:04:12;97644.03;;;1.81;57.66
39487;BME280;25173;50.430;18.926;2023-01-30T06:07:13;97649.75;;;1.85;57.34
39487;BME280;25173;50.430;18.926;2023-01-30T06:10:14;97652.19;;;1.86;57.25
39487;BME280;25173;50.430;18.926;2023-01-30T06:13:14;97640.06;;;1.84;57.08
39487;BME280;25173;50.430;18.926;2023-01-30T06:16:16;97656.84;;;1.79;56.97
39487;BME280;25173;50.430;18.926;2023-01-30T06:19:17;97643.91;;;1.76;57.34
39487;BME280;25173;50.430;18.926;2023-01-30T06:22:18;97655.19;;;1.78;56.92
39487;BME280;25173;50.430;18.926;2023-01-30T06:25:18;97629.19;;;1.79;57.21
39487;BME280;25173;50.430;18.926;2023-01-30T06:28:19;97626.66;;;1.84;57.14
39487;BME280;25173;50.430;18.926;2023-01-30T06:31:20;97623.25;;;1.88;57.19
39487;BME280;25173;50.430;18.926;2023-01-30T06:34:20;97614.84;;;1.97;56.96
39487;BME280;25173;50.430;18.926;2023-01-30T06:37:28;97611.13;;;1.98;56.96
39487;BME280;25173;50.430;18.926;2023-01-30T06:40:33;97612.06;;;1.91;56.70
39487;BME280;25173;50.430;18.926;2023-01-30T06:43:34;97614.59;;;1.86;57.07
39487;BME280;25173;50.430;18.926;2023-01-30T06:46:34;97612.63;;;1.82;57.05
39487;BME280;25173;50.430;18.926;2023-01-30T06:49:35;97612.75;;;1.75;57.13
39487;BME280;25173;50.430;18.926;2023-01-30T06:52:42;97607.81;;;1.72;57.15
39487;BME280;25173;50.430;18.926;2023-01-30T06:55:43;97599.53;;;1.62;57.40
39487;BME280;25173;50.430;18.926;2023-01-30T06:58:43;97601.75;;;1.65;57.46
39487;BME280;25173;50.430;18.926;2023-01-30T07:01:44;97597.69;;;1.74;57.42
39487;BME280;25173;50.430;18.926;2023-01-30T07:04:45;97590.34;;;1.81;57.30
39487;BME280;25173;50.430;18.926;2023-01-30T07:07:46;97591.75;;;1.84;57.27
39487;BME280;25173;50.430;18.926;2023-01-30T07:10:46;97576.47;;;1.84;57.13
39487;BME280;25173;50.430;18.926;2023-01-30T07:13:47;97567.91;;;1.87;57.40
39487;BME280;25173;50.430;18.926;2023-01-30T07:16:48;97568.50;;;1.89;57.13
39487;BME280;25173;50.430;18.926;2023-01-30T07:19:49;97551.94;;;1.92;57.29
39487;BME280;25173;50.430;18.926;2023-01-30T07:22:54;97549.97;;;2.00;57.17
39487;BME280;25173;50.430;18.926;2023-01-30T07:25:55;97566.41;;;2.03;56.98
39487;BME280;25173;50.430;18.926;2023-01-30T07:28:55;97549.00;;;2.06;56.83
39487;BME280;25173;50.430;18.926;2023-01-30T07:31:56;97530.44;;;2.04;56.88
39487;BME280;25173;50.430;18.926;2023-01-30T07:34:56;97550.16;;;2.10;56.72
39487;BME280;25173;50.430;18.926;2023-01-30T07:37:57;97547.63;;;2.15;56.56
39487;BME280;25173;50.430;18.926;2023-01-30T07:40:58;97527.41;;;2.12;56.87
39487;BME280;25173;50.430;18.926;2023-01-30T07:43:58;97527.53;;;2.06;56.70
39487;BME280;25173;50.430;18.926;2023-01-30T07:47:00;97520.28;;;2.06;56.59
39487;BME280;25173;50.430;18.926;2023-01-30T07:50:01;97532.41;;;2.09;56.76
39487;BME280;25173;50.430;18.926;2023-01-30T07:53:06;97548.28;;;2.10;56.64
39487;BME280;25173;50.430;18.926;2023-01-30T07:56:11;97566.41;;;2.15;56.80
39487;BME280;25173;50.430;18.926;2023-01-30T07:59:13;97563.25;;;2.18;56.54
39487;BME280;25173;50.430;18.926;2023-01-30T08:02:14;97560.56;;;2.18;56.72
39487;BME280;25173;50.430;18.926;2023-01-30T08:05:15;97519.22;;;2.19;56.70
39487;BME280;25173;50.430;18.926;2023-01-30T08:08:15;97526.19;;;2.31;56.66
39487;BME280;25173;50.430;18.926;2023-01-30T08:11:16;97527.56;;;2.46;56.53
39487;BME280;25173;50.430;18.926;2023-01-30T08:14:17;97516.88;;;2.62;56.26
39487;BME280;25173;50.430;18.926;2023-01-30T08:17:19;97514.88;;;2.69;56.03
39487;BME280;25173;50.430;18.926;2023-01-30T08:20:20;97503.41;;;2.74;55.81
39487;BME280;25173;50.430;18.926;2023-01-30T08:23:20;97500.72;;;2.74;56.09
39487;BME280;25173;50.430;18.926;2023-01-30T08:26:21;97503.59;;;2.84;55.79
39487;BME280;25173;50.430;18.926;2023-01-30T08:29:22;97497.88;;;2.81;55.68
39487;BME280;25173;50.430;18.926;2023-01-30T08:32:23;97513.44;;;2.79;55.79
39487;BME280;25173;50.430;18.926;2023-01-30T08:35:23;97501.78;;;2.73;55.75
39487;BME280;25173;50.430;18.926;2023-01-30T08:38:24;97498.41;;;2.66;55.61
39487;BME280;25173;50.430;18.926;2023-01-30T08:41:25;97501.81;;;2.61;55.82
39487;BME280;25173;50.430;18.926;2023-01-30T08:44:27;97506.94;;;2.63;56.19
39487;BME280;25173;50.430;18.926;2023-01-30T08:47:28;97501.56;;;2.63;56.25
39487;BME280;25173;50.430;18.926;2023-01-30T08:50:35;97490.00;;;2.62;55.85
39487;BME280;25173;50.430;18.926;2023-01-30T08:53:35;97497.59;;;2.65;56.17
39487;BME280;25173;50.430;18.926;2023-01-30T08:56:36;97481.56;;;2.70;56.30
39487;BME280;25173;50.430;18.926;2023-01-30T08:59:37;97478.94;;;2.59;56.29
39487;BME280;25173;50.430;18.926;2023-01-30T09:02:37;97490.28;;;2.49;57.04
39487;BME280;25173;50.430;18.926;2023-01-30T09:05:38;97485.44;;;2.34;57.91
39487;BME280;25173;50.430;18.926;2023-01-30T09:08:38;97468.03;;;2.25;58.61
39487;BME280;25173;50.430;18.926;2023-01-30T09:11:39;97468.88;;;2.26;59.09
39487;BME280;25173;50.430;18.926;2023-01-30T09:14:41;97477.06;;;2.19;59.50
39487;BME280;25173;50.430;18.926;2023-01-30T09:17:41;97483.16;;;2.15;59.95
39487;BME280;25173;50.430;18.926;2023-01-30T09:20:44;97472.19;;;2.05;60.21
39487;BME280;25173;50.430;18.926;2023-01-30T09:23:45;97477.91;;;1.97;60.89
39487;BME280;25173;50.430;18.926;2023-01-30T09:26:46;97458.31;;;1.96;60.95
39487;BME280;25173;50.430;18.926;2023-01-30T09:29:47;97470.19;;;2.00;61.40
39487;BME280;25173;50.430;18.926;2023-01-30T09:32:48;97470.19;;;2.00;61.78
39487;BME280;25173;50.430;18.926;2023-01-30T09:35:50;97455.38;;;1.98;61.88
39487;BME280;25173;50.430;18.926;2023-01-30T09:38:51;97454.47;;;1.92;62.07
39487;BME280;25173;50.430;18.926;2023-01-30T09:48:28;97424.69;;;1.93;62.75
39487;BME280;25173;50.430;18.926;2023-01-30T09:51:39;97403.94;;;1.89;63.00
39487;BME280;25173;50.430;18.926;2023-01-30T09:54:43;97410.25;;;1.83;63.21
39487;BME280;25173;50.430;18.926;2023-01-30T09:57:48;97402.44;;;1.81;63.42
39487;BME280;25173;50.430;18.926;2023-01-30T10:00:57;97403.56;;;1.85;63.77
39487;BME280;25173;50.430;18.926;2023-01-30T10:04:35;97394.81;;;1.90;64.37
39487;BME280;25173;50.430;18.926;2023-01-30T10:07:43;97383.72;;;1.98;63.95
39487;BME280;25173;50.430;18.926;2023-01-30T10:10:52;97390.22;;;2.02;64.06
39487;BME280;25173;50.430;18.926;2023-01-30T10:14:15;97385.22;;;2.06;64.30
39487;BME280;25173;50.430;18.926;2023-01-30T10:20:45;97366.50;;;2.11;64.86
39487;BME280;25173;50.430;18.926;2023-01-30T10:27:24;97353.31;;;2.09;64.66
39487;BME280;25173;50.430;18.926;2023-01-30T10:30:25;97349.25;;;2.07;64.88
39487;BME280;25173;50.430;18.926;2023-01-30T10:33:34;97340.81;;;2.15;64.84
39487;BME280;25173;50.430;18.926;2023-01-30T10:43:19;97330.06;;;2.15;65.19
39487;BME280;25173;50.430;18.926;2023-01-30T10:49:46;97317.53;;;2.20;65.49
39487;BME280;25173;50.430;18.926;2023-01-30T11:05:47;97294.31;;;2.59;65.44
39487;BME280;25173;50.430;18.926;2023-01-30T11:08:48;97300.22;;;2.61;67.56
39487;BME280;25173;50.430;18.926;2023-01-30T11:11:54;97289.47;;;2.61;65.57
39487;BME280;25173;50.430;18.926;2023-01-30T11:18:04;97282.16;;;2.57;65.71
39487;BME280;25173;50.430;18.926;2023-01-30T11:21:10;97283.63;;;2.48;65.91
39487;BME280;25173;50.430;18.926;2023-01-30T11:24:20;97274.66;;;2.42;66.22
39487;BME280;25173;50.430;18.926;2023-01-30T11:27:27;97260.66;;;2.40;66.45
39487;BME280;25173;50.430;18.926;2023-01-30T11:30:32;97250.06;;;2.33;66.80
39487;BME280;25173;50.430;18.926;2023-01-30T11:33:35;97267.47;;;2.31;67.22
39487;BME280;25173;50.430;18.926;2023-01-30T11:36:36;97244.13;;;2.31;67.10
39487;BME280;25173;50.430;18.926;2023-01-30T11:39:47;97239.66;;;2.37;67.66
39487;BME280;25173;50.430;18.926;2023-01-30T11:42:57;97237.03;;;2.42;67.49
39487;BME280;25173;50.430;18.926;2023-01-30T11:45:59;97221.56;;;2.49;67.50
39487;BME280;25173;50.430;18.926;2023-01-30T11:49:12;97222.69;;;2.53;67.61
39487;BME280;25173;50.430;18.926;2023-01-30T11:52:16;97214.16;;;2.56;67.67
39487;BME280;25173;50.430;18.926;2023-01-30T11:55:19;97219.06;;;2.59;67.86
39487;BME280;25173;50.430;18.926;2023-01-30T11:58:20;97218.13;;;2.70;67.81
39487;BME280;25173;50.430;18.926;2023-01-30T12:01:25;97216.31;;;2.76;67.68
39487;BME280;25173;50.430;18.926;2023-01-30T12:04:27;97209.41;;;2.80;67.89
39487;BME280;25173;50.430;18.926;2023-01-30T12:07:30;97215.59;;;2.81;67.69
39487;BME280;25173;50.430;18.926;2023-01-30T12:10:31;97213.53;;;2.88;67.92
39487;BME280;25173;50.430;18.926;2023-01-30T12:13:37;97217.34;;;2.92;67.77
39487;BME280;25173;50.430;18.926;2023-01-30T12:19:59;97202.16;;;3.02;67.74
39487;BME280;25173;50.430;18.926;2023-01-30T12:26:32;97210.09;;;3.14;67.62
39487;BME280;25173;50.430;18.926;2023-01-30T12:32:34;97193.38;;;3.12;67.89
39487;BME280;25173;50.430;18.926;2023-01-30T12:45:24;97175.19;;;3.19;68.22
39487;BME280;25173;50.430;18.926;2023-01-30T12:48:44;97178.50;;;3.26;67.97
39487;BME280;25173;50.430;18.926;2023-01-30T12:55:17;97173.09;;;3.26;68.20
39487;BME280;25173;50.430;18.926;2023-01-30T12:58:31;97167.69;;;3.21;68.06
39487;BME280;25173;50.430;18.926;2023-01-30T13:18:37;97157.53;;;3.28;68.58
39487;BME280;25173;50.430;18.926;2023-01-30T13:27:54;97144.41;;;3.32;68.56
39487;BME280;25173;50.430;18.926;2023-01-30T13:30:57;97153.34;;;3.37;68.52
39487;BME280;25173;50.430;18.926;2023-01-30T13:34:09;97149.59;;;3.38;68.47
39487;BME280;25173;50.430;18.926;2023-01-30T13:37:13;97138.88;;;3.43;68.37
39487;BME280;25173;50.430;18.926;2023-01-30T13:40:26;97144.13;;;3.55;68.35
39487;BME280;25173;50.430;18.926;2023-01-30T13:43:34;97126.69;;;3.63;68.40
39487;BME280;25173;50.430;18.926;2023-01-30T13:46:36;97131.88;;;3.69;67.65
39487;BME280;25173;50.430;18.926;2023-01-30T13:59:19;97132.06;;;3.95;66.97
39487;BME280;25173;50.430;18.926;2023-01-30T14:02:24;97129.72;;;4.03;66.93
39487;BME280;25173;50.430;18.926;2023-01-30T14:09:05;97115.38;;;4.29;66.27
39487;BME280;25173;50.430;18.926;2023-01-30T14:12:22;97115.72;;;4.43;66.00
39487;BME280;25173;50.430;18.926;2023-01-30T14:15:27;97119.50;;;4.47;65.69
39487;BME280;25173;50.430;18.926;2023-01-30T14:18:33;97130.84;;;4.49;65.46
39487;BME280;25173;50.430;18.926;2023-01-30T14:21:38;97124.91;;;4.47;65.55
39487;BME280;25173;50.430;18.926;2023-01-30T14:24:39;97118.19;;;4.50;65.38
39487;BME280;25173;50.430;18.926;2023-01-30T14:27:40;97123.03;;;4.53;65.19
39487;BME280;25173;50.430;18.926;2023-01-30T14:33:48;97110.44;;;4.63;65.22
39487;BME280;25173;50.430;18.926;2023-01-30T14:36:50;97122.06;;;4.69;65.04
39487;BME280;25173;50.430;18.926;2023-01-30T14:39:54;97118.59;;;4.74;64.79
39487;BME280;25173;50.430;18.926;2023-01-30T14:49:26;97136.59;;;4.68;64.86
39487;BME280;25173;50.430;18.926;2023-01-30T14:52:34;97144.69;;;4.68;64.54
39487;BME280;25173;50.430;18.926;2023-01-30T14:55:36;97135.78;;;4.67;64.69
39487;BME280;25173;50.430;18.926;2023-01-30T14:58:36;97138.53;;;4.73;64.82
39487;BME280;25173;50.430;18.926;2023-01-30T15:08:21;97146.97;;;4.86;64.48
39487;BME280;25173;50.430;18.926;2023-01-30T15:11:28;97143.22;;;4.92;64.19
39487;BME280;25173;50.430;18.926;2023-01-30T15:28:05;97179.78;;;5.25;63.91
39487;BME280;25173;50.430;18.926;2023-01-30T15:31:18;97181.38;;;5.26;63.64
39487;BME280;25173;50.430;18.926;2023-01-30T15:34:21;97186.00;;;5.26;63.86
39487;BME280;25173;50.430;18.926;2023-01-30T15:37:37;97180.06;;;5.24;63.87
39487;BME280;25173;50.430;18.926;2023-01-30T15:40:39;97191.91;;;5.18;64.04
39487;BME280;25173;50.430;18.926;2023-01-30T15:50:17;97190.28;;;5.17;63.95
39487;BME280;25173;50.430;18.926;2023-01-30T15:53:24;97185.97;;;5.21;64.00
39487;BME280;25173;50.430;18.926;2023-01-30T15:56:28;97200.56;;;5.25;63.91
39487;BME280;25173;50.430;18.926;2023-01-30T15:59:36;97186.28;;;5.29;63.92
39487;BME280;25173;50.430;18.926;2023-01-30T16:02:37;97194.38;;;5.34;63.86
39487;BME280;25173;50.430;18.926;2023-01-30T16:05:52;97208.19;;;5.43;63.48
39487;BME280;25173;50.430;18.926;2023-01-30T16:08:56;97210.88;;;5.43;63.45
39487;BME280;25173;50.430;18.926;2023-01-30T16:11:57;97213.84;;;5.41;63.47
39487;BME280;25173;50.430;18.926;2023-01-30T16:14:58;97206.56;;;5.42;63.39
39487;BME280;25173;50.430;18.926;2023-01-30T16:18:22;97212.50;;;5.39;63.39
39487;BME280;25173;50.430;18.926;2023-01-30T16:21:29;97211.97;;;5.42;63.52
39487;BME280;25173;50.430;18.926;2023-01-30T16:24:33;97211.19;;;5.46;63.36
39487;BME280;25173;50.430;18.926;2023-01-30T16:27:36;97210.94;;;5.48;63.36
39487;BME280;25173;50.430;18.926;2023-01-30T16:30:38;97220.41;;;5.56;63.31
39487;BME280;25173;50.430;18.926;2023-01-30T16:33:41;97229.84;;;5.58;63.09
39487;BME280;25173;50.430;18.926;2023-01-30T16:36:48;97239.56;;;5.59;63.21
39487;BME280;25173;50.430;18.926;2023-01-30T16:43:21;97222.31;;;5.65;62.67
39487;BME280;25173;50.430;18.926;2023-01-30T16:46:45;97215.28;;;5.64;62.46
39487;BME280;25173;50.430;18.926;2023-01-30T16:49:48;97209.31;;;5.57;62.44
39487;BME280;25173;50.430;18.926;2023-01-30T16:52:53;97232.53;;;5.53;62.51
39487;BME280;25173;50.430;18.926;2023-01-30T16:59:02;97221.22;;;5.61;62.78
39487;BME280;25173;50.430;18.926;2023-01-30T17:02:04;97227.44;;;5.67;62.61
39487;BME280;25173;50.430;18.926;2023-01-30T17:11:38;97243.66;;;5.62;62.30
39487;BME280;25173;50.430;18.926;2023-01-30T17:14:39;97228.22;;;5.52;62.59
39487;BME280;25173;50.430;18.926;2023-01-30T17:17:40;97234.44;;;5.53;62.94
39487;BME280;25173;50.430;18.926;2023-01-30T17:20:42;97232.53;;;5.48;63.08
39487;BME280;25173;50.430;18.926;2023-01-30T17:23:50;97234.38;;;5.42;63.89
39487;BME280;25173;50.430;18.926;2023-01-30T17:26:55;97235.72;;;5.40;63.79
39487;BME280;25173;50.430;18.926;2023-01-30T17:29:58;97233.81;;;5.35;64.14
39487;BME280;25173;50.430;18.926;2023-01-30T17:32:59;97227.84;;;5.28;64.42
39487;BME280;25173;50.430;18.926;2023-01-30T17:36:03;97226.44;;;5.21;64.64
39487;BME280;25173;50.430;18.926;2023-01-30T17:39:21;97229.94;;;5.16;64.96
39487;BME280;25173;50.430;18.926;2023-01-30T17:42:22;97244.75;;;5.14;64.86
39487;BME280;25173;50.430;18.926;2023-01-30T17:45:23;97230.72;;;5.12;64.99
39487;BME280;25173;50.430;18.926;2023-01-30T17:48:23;97231.84;;;5.16;65.08
39487;BME280;25173;50.430;18.926;2023-01-30T17:51:24;97227.00;;;5.18;64.94
39487;BME280;25173;50.430;18.926;2023-01-30T17:54:25;97223.22;;;5.19;65.05
39487;BME280;25173;50.430;18.926;2023-01-30T17:57:26;97214.84;;;5.20;65.04
39487;BME280;25173;50.430;18.926;2023-01-30T18:00:27;97214.06;;;5.25;64.77
39487;BME280;25173;50.430;18.926;2023-01-30T18:03:28;97210.31;;;5.26;64.86
39487;BME280;25173;50.430;18.926;2023-01-30T18:06:28;97217.28;;;5.27;64.69
39487;BME280;25173;50.430;18.926;2023-01-30T18:09:31;97211.13;;;5.31;64.80
39487;BME280;25173;50.430;18.926;2023-01-30T18:12:32;97211.94;;;5.32;64.76
39487;BME280;25173;50.430;18.926;2023-01-30T18:15:32;97207.31;;;5.22;64.69
39487;BME280;25173;50.430;18.926;2023-01-30T18:18:33;97214.59;;;5.22;64.91
39487;BME280;25173;50.430;18.926;2023-01-30T18:21:35;97208.94;;;5.23;65.10
39487;BME280;25173;50.430;18.926;2023-01-30T18:24:37;97208.38;;;5.26;65.02
39487;BME280;25173;50.430;18.926;2023-01-30T18:27:40;97215.72;;;5.31;64.90
39487;BME280;25173;50.430;18.926;2023-01-30T18:30:43;97221.38;;;5.29;64.67
39487;BME280;25173;50.430;18.926;2023-01-30T18:33:43;97209.75;;;5.29;64.57
39487;BME280;25173;50.430;18.926;2023-01-30T18:36:44;97204.09;;;5.35;64.54
39487;BME280;25173;50.430;18.926;2023-01-30T18:39:45;97204.91;;;5.36;64.32
39487;BME280;25173;50.430;18.926;2023-01-30T18:42:46;97200.31;;;5.31;64.27
39487;BME280;25173;50.430;18.926;2023-01-30T18:45:47;97202.47;;;5.29;64.24
39487;BME280;25173;50.430;18.926;2023-01-30T18:48:47;97203.28;;;5.30;64.16
39487;BME280;25173;50.430;18.926;2023-01-30T18:51:49;97206.56;;;5.37;64.17
39487;BME280;25173;50.430;18.926;2023-01-30T18:54:50;97205.22;;;5.39;63.95
39487;BME280;25173;50.430;18.926;2023-01-30T18:57:51;97198.50;;;5.47;63.85
39487;BME280;25173;50.430;18.926;2023-01-30T19:00:51;97208.19;;;5.43;63.60
39487;BME280;25173;50.430;18.926;2023-01-30T19:03:53;97201.16;;;5.42;63.38
39487;BME280;25173;50.430;18.926;2023-01-30T19:06:54;97195.50;;;5.48;63.45